createdAt,value
2018-09-01T00:00:56.231Z,1019.76
2018-09-01T00:02:06.195Z,1019.77
2018-09-01T00:03:15.373Z,1019.8
2018-09-01T00:04:25.375Z,1019.8
2018-09-01T00:05:34.286Z,1019.79
2018-09-01T00:06:44.236Z,1019.79
2018-09-01T00:07:53.932Z,1019.78
2018-09-01T00:09:03.096Z,1019.74
2018-09-01T00:10:12.269Z,1019.72
2018-09-01T00:11:21.708Z,1019.74
2018-09-01T00:12:31.396Z,1019.72
2018-09-01T00:13:40.614Z,1019.74
2018-09-01T00:14:50.555Z,1019.73
2018-09-01T00:15:59.499Z,1019.74
2018-09-01T00:17:09.446Z,1019.75
2018-09-01T00:18:18.635Z,1019.77
2018-09-01T00:19:28.593Z,1019.81
2018-09-01T00:20:38.273Z,1019.8
2018-09-01T00:21:47.985Z,1019.79
2018-09-01T00:22:57.149Z,1019.84
2018-09-01T00:24:06.065Z,1019.82
2018-09-01T00:25:15.251Z,1019.85
2018-09-01T00:26:24.917Z,1019.85
2018-09-01T00:27:34.324Z,1019.86
2018-09-01T00:28:43.501Z,1019.87
2018-09-01T00:29:52.938Z,1019.88
2018-09-01T00:31:02.378Z,1019.89
2018-09-01T00:32:11.624Z,1019.9
2018-09-01T00:33:21.299Z,1019.9
2018-09-01T00:34:31.254Z,1019.9
2018-09-01T00:35:40.439Z,1019.91
2018-09-01T00:36:49.373Z,1019.93
2018-09-01T00:37:58.828Z,1019.91
2018-09-01T00:39:08.526Z,1019.9
2018-09-01T00:40:17.699Z,1019.89
2018-09-01T00:41:27.127Z,1019.92
2018-09-01T00:42:37.076Z,1019.89
2018-09-01T00:43:46.506Z,1019.93
2018-09-01T00:44:56.188Z,1019.92
2018-09-01T00:46:05.882Z,1019.92
2018-09-01T00:47:15.313Z,1019.92
2018-09-01T00:48:24.233Z,1019.93
2018-09-01T00:49:34.231Z,1019.94
2018-09-01T00:50:44.010Z,1019.92
2018-09-01T00:51:53.466Z,1019.93
2018-09-01T00:53:02.900Z,1019.97
2018-09-01T00:54:12.585Z,1019.94
2018-09-01T00:55:21.512Z,1019.9
2018-09-01T00:56:30.426Z,1019.9
2018-09-01T00:57:39.854Z,1019.94
2018-09-01T00:58:49.870Z,1019.93
2018-09-01T00:59:59.822Z,1019.93
2018-09-01T01:01:08.801Z,1019.91
2018-09-01T01:02:18.234Z,1019.92
2018-09-01T01:03:27.961Z,1019.95
2018-09-01T01:04:37.668Z,1019.92
2018-09-01T01:05:46.845Z,1019.98
2018-09-01T01:06:56.285Z,1019.98
2018-09-01T01:08:05.707Z,1019.99
2018-09-01T01:09:15.421Z,1019.96
2018-09-01T01:10:24.614Z,1019.99
2018-09-01T01:11:34.062Z,1019.99
2018-09-01T01:12:43.496Z,1019.97
2018-09-01T01:13:52.921Z,1019.99
2018-09-01T01:15:02.714Z,1019.98
2018-09-01T01:16:12.161Z,1019.96
2018-09-01T01:17:21.317Z,1019.99
2018-09-01T01:18:30.472Z,1019.98
2018-09-01T01:19:39.643Z,1020
2018-09-01T01:20:49.076Z,1020.01
2018-09-01T01:21:58.247Z,1020.04
2018-09-01T01:23:07.937Z,1019.99
2018-09-01T01:24:17.382Z,1020.04
2018-09-01T01:25:26.819Z,1020
2018-09-01T01:26:35.739Z,1020.08
2018-09-01T01:27:44.926Z,1020.04
2018-09-01T01:28:54.628Z,1020.08
2018-09-01T01:30:04.327Z,1020.08
2018-09-01T01:31:13.756Z,1020.09
2018-09-01T01:32:23.445Z,1020.03
2018-09-01T01:33:33.123Z,1020.03
2018-09-01T01:34:42.818Z,1020.02
2018-09-01T01:35:52.001Z,1019.99
2018-09-01T01:37:01.433Z,1020.01
2018-09-01T01:38:10.647Z,1020.04
2018-09-01T01:39:20.070Z,1020.06
2018-09-01T01:40:29.522Z,1020.03
2018-09-01T01:41:38.704Z,1020.04
2018-09-01T01:42:48.140Z,1020.04
2018-09-01T01:43:57.316Z,1020.07
2018-09-01T01:45:06.779Z,1020.02
2018-09-01T01:46:16.212Z,1020.04
2018-09-01T01:47:25.650Z,1020.05
2018-09-01T01:48:34.621Z,1020.06
2018-09-01T01:49:43.694Z,1020.05
2018-09-01T01:50:52.669Z,1020.04
2018-09-01T01:52:01.848Z,1020.02
2018-09-01T01:53:11.306Z,1020.05
2018-09-01T01:54:20.747Z,1020.05
2018-09-01T01:55:30.706Z,1020.02
2018-09-01T01:56:40.133Z,1020.05
2018-09-01T01:57:49.302Z,1020.07
2018-09-01T01:58:59.003Z,1020.09
2018-09-01T02:00:08.437Z,1020.1
2018-09-01T02:01:17.616Z,1020.1
2018-09-01T02:02:27.036Z,1020.13
2018-09-01T02:03:36.467Z,1020.09
2018-09-01T02:04:46.426Z,1020.06
2018-09-01T02:05:56.120Z,1020.03
2018-09-01T02:07:05.036Z,1020.05
2018-09-01T02:08:14.458Z,1020.05
2018-09-01T02:09:23.870Z,1020.06
2018-09-01T02:10:32.530Z,1020.02
2018-09-01T02:11:41.700Z,1020.05
2018-09-01T02:12:50.869Z,1020.05
2018-09-01T02:14:00.054Z,1020.06
2018-09-01T02:15:09.493Z,1020.04
2018-09-01T02:16:18.939Z,1020.05
2018-09-01T02:17:28.161Z,1020.07
2018-09-01T02:18:38.144Z,1020.05
2018-09-01T02:19:47.566Z,1020.04
2018-09-01T02:20:57.257Z,1020.02
2018-09-01T02:22:06.690Z,1020.04
2018-09-01T02:23:16.127Z,1020.02
2018-09-01T02:24:25.554Z,1020.01
2018-09-01T02:25:34.736Z,1020.01
2018-09-01T02:26:44.439Z,1020.06
2018-09-01T02:27:53.876Z,1020.02
2018-09-01T02:29:03.582Z,1020.07
2018-09-01T02:30:12.765Z,1020.04
2018-09-01T02:31:22.212Z,1020.06
2018-09-01T02:32:31.385Z,1020.03
2018-09-01T02:33:41.080Z,1020.06
2018-09-01T02:34:51.039Z,1020.05
2018-09-01T02:35:59.958Z,1020.09
2018-09-01T02:37:09.672Z,1020.05
2018-09-01T02:38:18.842Z,1020.07
2018-09-01T02:39:28.012Z,1020.05
2018-09-01T02:40:37.966Z,1020.05
2018-09-01T02:41:47.668Z,1020.05
2018-09-01T02:42:57.106Z,1020.05
2018-09-01T02:44:07.053Z,1020.05
2018-09-01T02:45:16.242Z,1020.06
2018-09-01T02:46:25.940Z,1020.06
2018-09-01T02:47:35.099Z,1020.08
2018-09-01T02:48:44.781Z,1020.09
2018-09-01T02:49:54.225Z,1020.07
2018-09-01T02:51:03.669Z,1020.12
2018-09-01T02:52:12.594Z,1020.1
2018-09-01T02:53:22.287Z,1020.09
2018-09-01T02:54:31.978Z,1020.13
2018-09-01T02:55:41.691Z,1020.06
2018-09-01T02:56:51.387Z,1020.09
2018-09-01T02:58:00.561Z,1020.06
2018-09-01T02:59:10.006Z,1020.04
2018-09-01T03:00:19.461Z,1020.08
2018-09-01T03:01:28.395Z,1020.06
2018-09-01T03:02:38.117Z,1020.07
2018-09-01T03:03:48.064Z,1020.1
2018-09-01T03:04:57.752Z,1020.13
2018-09-01T03:06:07.439Z,1020.08
2018-09-01T03:07:17.114Z,1020.07
2018-09-01T03:08:26.534Z,1020.16
2018-09-01T03:09:35.975Z,1020.12
2018-09-01T03:10:44.888Z,1020.1
2018-09-01T03:11:54.087Z,1020.12
2018-09-01T03:13:03.028Z,1020.12
2018-09-01T03:14:12.492Z,1020.18
2018-09-01T03:15:22.193Z,1020.13
2018-09-01T03:16:31.918Z,1020.16
2018-09-01T03:17:41.340Z,1020.16
2018-09-01T03:18:50.760Z,1020.14
2018-09-01T03:19:59.941Z,1020.18
2018-09-01T03:21:09.395Z,1020.14
2018-09-01T03:22:18.323Z,1020.15
2018-09-01T03:23:28.021Z,1020.16
2018-09-01T03:24:37.459Z,1020.16
2018-09-01T03:25:47.140Z,1020.18
2018-09-01T03:26:56.815Z,1020.19
2018-09-01T03:28:06.756Z,1020.19
2018-09-01T03:29:16.181Z,1020.19
2018-09-01T03:30:25.099Z,1020.24
2018-09-01T03:31:34.786Z,1020.27
2018-09-01T03:32:43.977Z,1020.28
2018-09-01T03:33:53.406Z,1020.28
2018-09-01T03:35:03.090Z,1020.34
2018-09-01T03:36:12.541Z,1020.33
2018-09-01T03:37:22.483Z,1020.35
2018-09-01T03:38:32.204Z,1020.37
2018-09-01T03:39:42.142Z,1020.37
2018-09-01T03:40:51.565Z,1020.38
2018-09-01T03:42:01.276Z,1020.38
2018-09-01T03:43:10.995Z,1020.4
2018-09-01T03:44:20.224Z,1020.4
2018-09-01T03:45:29.689Z,1020.39
2018-09-01T03:46:39.124Z,1020.4
2018-09-01T03:47:48.649Z,1020.41
2018-09-01T03:48:58.578Z,1020.44
2018-09-01T03:50:07.762Z,1020.42
2018-09-01T03:51:17.188Z,1020.42
2018-09-01T03:52:26.350Z,1020.41
2018-09-01T03:53:36.036Z,1020.43
2018-09-01T03:54:45.229Z,1020.45
2018-09-01T03:55:55.214Z,1020.43
2018-09-01T03:57:04.392Z,1020.44
2018-09-01T03:58:13.806Z,1020.44
2018-09-01T03:59:23.234Z,1020.47
2018-09-01T04:00:32.438Z,1020.45
2018-09-01T04:01:41.872Z,1020.44
2018-09-01T04:02:51.301Z,1020.44
2018-09-01T04:04:00.503Z,1020.4
2018-09-01T04:05:09.957Z,1020.42
2018-09-01T04:06:19.201Z,1020.43
2018-09-01T04:07:28.647Z,1020.42
2018-09-01T04:08:37.823Z,1020.41
2018-09-01T04:09:46.717Z,1020.42
2018-09-01T04:10:56.667Z,1020.41
2018-09-01T04:12:06.089Z,1020.46
2018-09-01T04:13:15.536Z,1020.43
2018-09-01T04:14:24.965Z,1020.42
2018-09-01T04:15:34.646Z,1020.42
2018-09-01T04:16:44.336Z,1020.47
2018-09-01T04:17:53.760Z,1020.49
2018-09-01T04:19:03.427Z,1020.51
2018-09-01T04:20:12.598Z,1020.49
2018-09-01T04:21:21.798Z,1020.47
2018-09-01T04:22:31.058Z,1020.5
2018-09-01T04:23:39.974Z,1020.51
2018-09-01T04:24:49.672Z,1020.52
2018-09-01T04:25:59.370Z,1020.51
2018-09-01T04:27:08.982Z,1020.5
2018-09-01T04:28:18.410Z,1020.49
2018-09-01T04:29:28.358Z,1020.49
2018-09-01T04:30:37.775Z,1020.5
2018-09-01T04:31:47.198Z,1020.5
2018-09-01T04:32:56.752Z,1020.52
2018-09-01T04:34:05.934Z,1020.51
2018-09-01T04:35:15.370Z,1020.46
2018-09-01T04:36:25.065Z,1020.5
2018-09-01T04:37:34.757Z,1020.49
2018-09-01T04:38:44.429Z,1020.51
2018-09-01T04:39:53.600Z,1020.52
2018-09-01T04:41:03.093Z,1020.55
2018-09-01T04:42:12.271Z,1020.56
2018-09-01T04:43:21.226Z,1020.58
2018-09-01T04:44:30.901Z,1020.57
2018-09-01T04:45:40.090Z,1020.61
2018-09-01T04:46:49.567Z,1020.59
2018-09-01T04:47:59.440Z,1020.62
2018-09-01T04:49:09.133Z,1020.65
2018-09-01T04:50:18.837Z,1020.68
2018-09-01T04:51:28.010Z,1020.72
2018-09-01T04:52:37.704Z,1020.68
2018-09-01T04:53:46.941Z,1020.63
2018-09-01T04:54:56.110Z,1020.69
2018-09-01T04:56:05.829Z,1020.73
2018-09-01T04:57:15.009Z,1020.75
2018-09-01T04:58:24.503Z,1020.77
2018-09-01T04:59:34.224Z,1020.82
2018-09-01T05:00:43.673Z,1020.87
2018-09-01T05:01:53.495Z,1020.82
2018-09-01T05:03:02.941Z,1020.83
2018-09-01T05:04:12.403Z,1020.88
2018-09-01T05:05:22.116Z,1020.91
2018-09-01T05:06:31.547Z,1020.88
2018-09-01T05:07:40.981Z,1020.9
2018-09-01T05:08:50.475Z,1020.92
2018-09-01T05:09:59.908Z,1020.92
2018-09-01T05:11:09.355Z,1020.91
2018-09-01T05:12:19.044Z,1020.93
2018-09-01T05:13:27.956Z,1020.93
2018-09-01T05:14:37.406Z,1020.94
2018-09-01T05:15:46.070Z,1020.95
2018-09-01T05:16:54.964Z,1021
2018-09-01T05:18:04.698Z,1020.98
2018-09-01T05:19:14.147Z,1020.97
2018-09-01T05:20:23.839Z,1020.99
2018-09-01T05:21:33.268Z,1020.97
2018-09-01T05:22:42.961Z,1020.98
2018-09-01T05:23:52.966Z,1020.98
2018-09-01T05:25:02.714Z,1021.02
2018-09-01T05:26:12.142Z,1020.98
2018-09-01T05:27:21.574Z,1021.03
2018-09-01T05:28:31.518Z,1021.02
2018-09-01T05:29:40.738Z,1021.04
2018-09-01T05:30:50.436Z,1021.03
2018-09-01T05:31:59.362Z,1020.99
2018-09-01T05:33:08.835Z,1021.02
2018-09-01T05:34:18.853Z,1021.04
2018-09-01T05:35:28.034Z,1021.01
2018-09-01T05:36:37.875Z,1021.04
2018-09-01T05:37:48.220Z,1021.04
2018-09-01T05:38:57.647Z,1021.04
2018-09-01T05:40:06.564Z,1021.03
2018-09-01T05:41:16.306Z,1021.04
2018-09-01T05:42:25.726Z,1021.05
2018-09-01T05:43:34.948Z,1021.07
2018-09-01T05:44:44.936Z,1021.08
2018-09-01T05:45:54.629Z,1021.1
2018-09-01T05:47:04.067Z,1021.13
2018-09-01T05:48:13.251Z,1021.13
2018-09-01T05:49:23.207Z,1021.15
2018-09-01T05:50:32.676Z,1021.12
2018-09-01T05:51:42.553Z,1021.16
2018-09-01T05:52:52.266Z,1021.15
2018-09-01T05:54:01.174Z,1021.18
2018-09-01T05:55:10.619Z,1021.21
2018-09-01T05:56:20.047Z,1021.22
2018-09-01T05:57:29.508Z,1021.2
2018-09-01T05:58:39.192Z,1021.24
2018-09-01T05:59:49.131Z,1021.24
2018-09-01T06:00:59.083Z,1021.24
2018-09-01T06:02:09.041Z,1021.24
2018-09-01T06:03:17.983Z,1021.29
2018-09-01T06:04:27.210Z,1021.28
2018-09-01T06:05:37.148Z,1021.29
2018-09-01T06:06:46.880Z,1021.32
2018-09-01T06:07:55.803Z,1021.34
2018-09-01T06:09:05.032Z,1021.35
2018-09-01T06:10:14.206Z,1021.35
2018-09-01T06:11:23.126Z,1021.33
2018-09-01T06:12:32.308Z,1021.37
2018-09-01T06:13:42.164Z,1021.38
2018-09-01T06:14:51.866Z,1021.44
2018-09-01T06:16:01.299Z,1021.42
2018-09-01T06:17:10.219Z,1021.48
2018-09-01T06:18:19.133Z,1021.45
2018-09-01T06:19:28.829Z,1021.38
2018-09-01T06:20:38.330Z,1021.41
2018-09-01T06:21:47.491Z,1021.37
2018-09-01T06:22:57.441Z,1021.42
2018-09-01T06:24:06.870Z,1021.43
2018-09-01T06:25:16.328Z,1021.43
2018-09-01T06:26:26.048Z,1021.43
2018-09-01T06:27:35.491Z,1021.44
2018-09-01T06:28:44.687Z,1021.42
2018-09-01T06:29:53.858Z,1021.47
2018-09-01T06:31:03.330Z,1021.47
2018-09-01T06:32:12.791Z,1021.51
2018-09-01T06:33:22.221Z,1021.5
2018-09-01T06:34:31.415Z,1021.52
2018-09-01T06:35:40.884Z,1021.55
2018-09-01T06:36:50.650Z,1021.58
2018-09-01T06:38:00.333Z,1021.51
2018-09-01T06:39:09.793Z,1021.54
2018-09-01T06:40:19.475Z,1021.57
2018-09-01T06:41:28.692Z,1021.57
2018-09-01T06:42:38.591Z,1021.54
2018-09-01T06:43:47.519Z,1021.53
2018-09-01T06:44:57.449Z,1021.55
2018-09-01T06:46:06.397Z,1021.54
2018-09-01T06:47:16.096Z,1021.57
2018-09-01T06:48:25.027Z,1021.55
2018-09-01T06:49:33.945Z,1021.58
2018-09-01T06:50:43.657Z,1021.57
2018-09-01T06:51:53.338Z,1021.59
2018-09-01T06:53:02.036Z,1021.58
2018-09-01T06:54:11.508Z,1021.55
2018-09-01T06:55:20.932Z,1021.54
2018-09-01T06:56:30.120Z,1021.54
2018-09-01T06:57:39.826Z,1021.55
2018-09-01T06:58:49.578Z,1021.53
2018-09-01T06:59:59.261Z,1021.54
2018-09-01T07:01:08.718Z,1021.52
2018-09-01T07:02:18.168Z,1021.57
2018-09-01T07:03:28.156Z,1021.57
2018-09-01T07:04:37.346Z,1021.6
2018-09-01T07:05:46.790Z,1021.58
2018-09-01T07:06:56.230Z,1021.61
2018-09-01T07:08:04.890Z,1021.59
2018-09-01T07:09:14.096Z,1021.58
2018-09-01T07:10:23.533Z,1021.6
2018-09-01T07:11:32.448Z,1021.63
2018-09-01T07:12:41.122Z,1021.65
2018-09-01T07:13:50.588Z,1021.62
2018-09-01T07:14:59.775Z,1021.65
2018-09-01T07:16:08.984Z,1021.69
2018-09-01T07:17:18.678Z,1021.7
2018-09-01T07:18:27.901Z,1021.69
2018-09-01T07:19:37.059Z,1021.7
2018-09-01T07:20:46.753Z,1021.74
2018-09-01T07:21:56.171Z,1021.74
2018-09-01T07:23:05.092Z,1021.73
2018-09-01T07:24:15.027Z,1021.77
2018-09-01T07:25:23.949Z,1021.78
2018-09-01T07:26:33.206Z,1021.81
2018-09-01T07:27:42.383Z,1021.79
2018-09-01T07:28:52.345Z,1021.78
2018-09-01T07:30:01.556Z,1021.75
2018-09-01T07:31:12.583Z,1021.81
2018-09-01T07:32:25.254Z,1021.81
2018-09-01T07:33:34.712Z,1021.79
2018-09-01T07:34:44.142Z,1021.78
2018-09-01T07:35:54.149Z,1021.79
2018-09-01T07:37:03.599Z,1021.8
2018-09-01T07:38:13.303Z,1021.78
2018-09-01T07:39:22.856Z,1021.81
2018-09-01T07:40:31.516Z,1021.8
2018-09-01T07:41:40.984Z,1021.78
2018-09-01T07:42:50.954Z,1021.81
2018-09-01T07:44:00.123Z,1021.8
2018-09-01T07:45:09.566Z,1021.86
2018-09-01T07:46:18.997Z,1021.85
2018-09-01T07:47:27.914Z,1021.9
2018-09-01T07:48:37.340Z,1021.85
2018-09-01T07:49:47.081Z,1021.86
2018-09-01T07:50:56.852Z,1021.88
2018-09-01T07:52:05.781Z,1021.88
2018-09-01T07:53:15.205Z,1021.84
2018-09-01T07:54:24.463Z,1021.87
2018-09-01T07:55:34.378Z,1021.93
2018-09-01T07:56:44.085Z,1021.9
2018-09-01T07:57:54.047Z,1021.92
2018-09-01T07:59:03.475Z,1021.95
2018-09-01T08:00:12.645Z,1021.95
2018-09-01T08:01:21.629Z,1021.98
2018-09-01T08:02:31.067Z,1021.97
2018-09-01T08:03:40.540Z,1021.98
2018-09-01T08:04:49.968Z,1021.97
2018-09-01T08:05:59.934Z,1022.01
2018-09-01T08:07:09.378Z,1022.04
2018-09-01T08:08:18.560Z,1022.05
2018-09-01T08:09:27.490Z,1022.01
2018-09-01T08:10:36.669Z,1022.02
2018-09-01T08:11:46.433Z,1022
2018-09-01T08:12:55.602Z,1022
2018-09-01T08:14:05.545Z,1021.99
2018-09-01T08:15:16.343Z,1022.03
2018-09-01T08:16:26.031Z,1022.03
2018-09-01T08:17:35.286Z,1022.04
2018-09-01T08:18:45.005Z,1022.03
2018-09-01T08:19:54.429Z,1022.04
2018-09-01T08:21:04.173Z,1022.03
2018-09-01T08:22:13.638Z,1022.06
2018-09-01T08:23:23.328Z,1022.14
2018-09-01T08:24:32.766Z,1022.11
2018-09-01T08:25:41.955Z,1022.15
2018-09-01T08:26:51.383Z,1022.14
2018-09-01T08:28:01.344Z,1022.15
2018-09-01T08:29:10.801Z,1022.12
2018-09-01T08:30:20.486Z,1022.11
2018-09-01T08:31:29.921Z,1022.18
2018-09-01T08:32:39.636Z,1022.18
2018-09-01T08:33:49.400Z,1022.16
2018-09-01T08:34:59.242Z,1022.18
2018-09-01T08:36:08.737Z,1022.18
2018-09-01T08:37:17.915Z,1022.17
2018-09-01T08:38:26.569Z,1022.24
2018-09-01T08:39:36.532Z,1022.23
2018-09-01T08:40:46.246Z,1022.24
2018-09-01T08:41:55.935Z,1022.24
2018-09-01T08:43:04.854Z,1022.21
2018-09-01T08:44:14.027Z,1022.26
2018-09-01T08:45:23.613Z,1022.28
2018-09-01T08:46:33.349Z,1022.28
2018-09-01T08:47:42.548Z,1022.3
2018-09-01T08:48:51.462Z,1022.32
2018-09-01T08:50:00.631Z,1022.34
2018-09-01T08:51:09.843Z,1022.33
2018-09-01T08:52:19.559Z,1022.37
2018-09-01T08:53:29.008Z,1022.37
2018-09-01T08:54:38.682Z,1022.36
2018-09-01T08:55:47.842Z,1022.34
2018-09-01T08:56:57.781Z,1022.34
2018-09-01T08:58:06.978Z,1022.3
2018-09-01T08:59:16.395Z,1022.32
2018-09-01T09:00:26.342Z,1022.37
2018-09-01T09:01:35.515Z,1022.4
2018-09-01T09:02:45.210Z,1022.39
2018-09-01T09:03:54.397Z,1022.39
2018-09-01T09:05:04.107Z,1022.37
2018-09-01T09:06:13.020Z,1022.37
2018-09-01T09:07:22.446Z,1022.38
2018-09-01T09:08:31.874Z,1022.4
2018-09-01T09:09:40.795Z,1022.37
2018-09-01T09:10:50.281Z,1022.38
2018-09-01T09:11:59.987Z,1022.35
2018-09-01T09:13:09.156Z,1022.34
2018-09-01T09:14:18.925Z,1022.35
2018-09-01T09:15:27.858Z,1022.34
2018-09-01T09:16:37.567Z,1022.38
2018-09-01T09:17:47.014Z,1022.41
2018-09-01T09:18:56.465Z,1022.4
2018-09-01T09:20:05.958Z,1022.43
2018-09-01T09:21:15.405Z,1022.46
2018-09-01T09:22:24.835Z,1022.41
2018-09-01T09:23:34.517Z,1022.41
2018-09-01T09:24:43.691Z,1022.43
2018-09-01T09:25:52.864Z,1022.34
2018-09-01T09:27:02.575Z,1022.41
2018-09-01T09:28:12.537Z,1022.34
2018-09-01T09:29:22.493Z,1022.32
2018-09-01T09:30:32.190Z,1022.34
2018-09-01T09:31:41.936Z,1022.35
2018-09-01T09:32:51.381Z,1022.35
2018-09-01T09:34:01.261Z,1022.35
2018-09-01T09:35:10.205Z,1022.35
2018-09-01T09:36:19.638Z,1022.31
2018-09-01T09:37:28.551Z,1022.33
2018-09-01T09:38:38.241Z,1022.31
2018-09-01T09:39:46.915Z,1022.29
2018-09-01T09:40:56.389Z,1022.27
2018-09-01T09:42:05.555Z,1022.26
2018-09-01T09:43:14.991Z,1022.26
2018-09-01T09:44:24.675Z,1022.32
2018-09-01T09:45:33.892Z,1022.25
2018-09-01T09:46:43.066Z,1022.3
2018-09-01T09:47:52.756Z,1022.29
2018-09-01T09:49:01.917Z,1022.29
2018-09-01T09:50:11.871Z,1022.27
2018-09-01T09:51:21.831Z,1022.23
2018-09-01T09:52:31.243Z,1022.24
2018-09-01T09:53:40.917Z,1022.23
2018-09-01T09:54:50.335Z,1022.22
2018-09-01T09:55:59.516Z,1022.22
2018-09-01T09:57:08.932Z,1022.19
2018-09-01T09:58:18.483Z,1022.2
2018-09-01T09:59:28.936Z,1022.2
2018-09-01T10:00:37.860Z,1022.23
2018-09-01T10:01:47.351Z,1022.16
2018-09-01T10:02:56.837Z,1022.22
2018-09-01T10:04:06.719Z,1022.16
2018-09-01T10:05:16.780Z,1022.14
2018-09-01T10:06:26.729Z,1022.14
2018-09-01T10:07:35.913Z,1022.15
2018-09-01T10:08:45.094Z,1022.13
2018-09-01T10:09:54.263Z,1022.18
2018-09-01T10:11:03.224Z,1022.2
2018-09-01T10:12:13.348Z,1022.15
2018-09-01T10:13:22.833Z,1022.18
2018-09-01T10:14:32.813Z,1022.14
2018-09-01T10:15:42.294Z,1022.09
2018-09-01T10:16:52.237Z,1022.18
2018-09-01T10:18:01.429Z,1022.14
2018-09-01T10:19:11.113Z,1022.15
2018-09-01T10:20:20.688Z,1022.13
2018-09-01T10:21:30.118Z,1022.1
2018-09-01T10:22:39.311Z,1022.02
2018-09-01T10:23:48.487Z,1022.1
2018-09-01T10:24:58.168Z,1022.06
2018-09-01T10:26:07.621Z,1022.09
2018-09-01T10:27:16.801Z,1022.05
2018-09-01T10:28:26.258Z,1022.07
2018-09-01T10:29:35.420Z,1021.99
2018-09-01T10:30:44.618Z,1022.04
2018-09-01T10:31:54.296Z,1022.03
2018-09-01T10:33:03.981Z,1022.06
2018-09-01T10:34:13.695Z,1022.09
2018-09-01T10:35:23.133Z,1022.04
2018-09-01T10:36:32.051Z,1022.01
2018-09-01T10:37:41.755Z,1022.03
2018-09-01T10:38:51.546Z,1022.06
2018-09-01T10:40:00.748Z,1022.04
2018-09-01T10:41:10.184Z,1022.12
2018-09-01T10:42:19.368Z,1022.11
2018-09-01T10:43:29.059Z,1022.07
2018-09-01T10:44:38.299Z,1022.03
2018-09-01T10:45:47.725Z,1022.03
2018-09-01T10:46:57.442Z,1022.02
2018-09-01T10:48:07.162Z,1022
2018-09-01T10:49:16.409Z,1022
2018-09-01T10:50:25.836Z,1022.03
2018-09-01T10:51:35.278Z,1021.96
2018-09-01T10:52:44.472Z,1021.95
2018-09-01T10:53:54.253Z,1021.95
2018-09-01T10:55:03.441Z,1021.9
2018-09-01T10:56:13.132Z,1021.9
2018-09-01T10:57:22.838Z,1021.89
2018-09-01T10:58:32.314Z,1021.85
2018-09-01T10:59:42.200Z,1021.87
2018-09-01T11:00:52.955Z,1021.9
2018-09-01T11:02:02.922Z,1021.95
2018-09-01T11:03:12.155Z,1021.87
2018-09-01T11:04:21.734Z,1021.91
2018-09-01T11:05:30.953Z,1021.88
2018-09-01T11:06:40.432Z,1021.94
2018-09-01T11:07:49.618Z,1021.9
2018-09-01T11:08:58.832Z,1021.91
2018-09-01T11:10:08.266Z,1021.89
2018-09-01T11:11:17.707Z,1021.87
2018-09-01T11:12:26.900Z,1021.83
2018-09-01T11:13:36.330Z,1021.85
2018-09-01T11:14:45.001Z,1021.87
2018-09-01T11:15:54.692Z,1021.9
2018-09-01T11:17:04.123Z,1021.91
2018-09-01T11:18:13.847Z,1021.87
2018-09-01T11:19:23.033Z,1021.84
2018-09-01T11:20:32.499Z,1021.84
2018-09-01T11:21:42.074Z,1021.85
2018-09-01T11:22:51.572Z,1021.79
2018-09-01T11:24:00.756Z,1021.82
2018-09-01T11:25:10.472Z,1021.75
2018-09-01T11:26:20.170Z,1021.75
2018-09-01T11:27:29.909Z,1021.73
2018-09-01T11:28:40.451Z,1021.78
2018-09-01T11:29:50.161Z,1021.81
2018-09-01T11:30:59.834Z,1021.8
2018-09-01T11:32:09.782Z,1021.77
2018-09-01T11:33:19.242Z,1021.75
2018-09-01T11:34:29.038Z,1021.76
2018-09-01T11:35:38.255Z,1021.73
2018-09-01T11:36:48.227Z,1021.74
2018-09-01T11:37:58.716Z,1021.7
2018-09-01T11:39:08.157Z,1021.69
2018-09-01T11:40:17.624Z,1021.7
2018-09-01T11:41:27.396Z,1021.67
2018-09-01T11:42:36.416Z,1021.78
2018-09-01T11:43:46.739Z,1021.73
2018-09-01T11:44:56.012Z,1021.74
2018-09-01T11:46:05.703Z,1021.78
2018-09-01T11:47:14.626Z,1021.82
2018-09-01T11:48:24.319Z,1021.81
2018-09-01T11:49:34.012Z,1021.74
2018-09-01T11:50:43.507Z,1021.71
2018-09-01T11:51:53.237Z,1021.75
2018-09-01T11:53:02.495Z,1021.73
2018-09-01T11:54:12.593Z,1021.79
2018-09-01T11:55:22.109Z,1021.72
2018-09-01T11:56:31.586Z,1021.76
2018-09-01T11:57:41.296Z,1021.72
2018-09-01T11:58:50.805Z,1021.67
2018-09-01T12:00:01.280Z,1021.64
2018-09-01T12:01:10.509Z,1021.63
2018-09-01T12:02:20.114Z,1021.6
2018-09-01T12:03:30.136Z,1021.67
2018-09-01T12:04:39.472Z,1021.56
2018-09-01T12:05:49.236Z,1021.63
2018-09-01T12:06:58.688Z,1021.61
2018-09-01T12:08:08.137Z,1021.63
2018-09-01T12:09:17.878Z,1021.64
2018-09-01T12:10:28.336Z,1021.63
2018-09-01T12:11:38.340Z,1021.61
2018-09-01T12:12:47.875Z,1021.6
2018-09-01T12:13:57.384Z,1021.58
2018-09-01T12:15:07.182Z,1021.55
2018-09-01T12:16:16.624Z,1021.62
2018-09-01T12:17:26.325Z,1021.65
2018-09-01T12:18:35.510Z,1021.65
2018-09-01T12:19:45.201Z,1021.59
2018-09-01T12:20:54.663Z,1021.59
2018-09-01T12:22:03.318Z,1021.56
2018-09-01T12:23:12.625Z,1021.57
2018-09-01T12:24:21.834Z,1021.57
2018-09-01T12:25:31.273Z,1021.55
2018-09-01T12:26:41.236Z,1021.55
2018-09-01T12:27:50.668Z,1021.58
2018-09-01T12:28:59.661Z,1021.57
2018-09-01T12:30:08.862Z,1021.57
2018-09-01T12:31:18.084Z,1021.53
2018-09-01T12:32:27.304Z,1021.57
2018-09-01T12:33:37.005Z,1021.55
2018-09-01T12:34:46.439Z,1021.56
2018-09-01T12:35:55.609Z,1021.61
2018-09-01T12:37:04.819Z,1021.59
2018-09-01T12:38:13.768Z,1021.6
2018-09-01T12:39:23.481Z,1021.6
2018-09-01T12:40:32.687Z,1021.6
2018-09-01T12:41:42.420Z,1021.58
2018-09-01T12:42:51.368Z,1021.55
2018-09-01T12:44:00.840Z,1021.57
2018-09-01T12:45:10.119Z,1021.53
2018-09-01T12:46:19.640Z,1021.5
2018-09-01T12:47:28.576Z,1021.47
2018-09-01T12:48:37.778Z,1021.51
2018-09-01T12:49:46.958Z,1021.49
2018-09-01T12:50:56.663Z,1021.5
2018-09-01T12:52:06.361Z,1021.51
2018-09-01T12:53:16.156Z,1021.55
2018-09-01T12:54:25.489Z,1021.51
2018-09-01T12:55:35.474Z,1021.51
2018-09-01T12:56:44.670Z,1021.48
2018-09-01T12:57:54.396Z,1021.48
2018-09-01T12:59:03.590Z,1021.47
2018-09-01T13:00:13.554Z,1021.46
2018-09-01T13:01:22.993Z,1021.53
2018-09-01T13:02:32.464Z,1021.45
2018-09-01T13:03:42.207Z,1021.44
2018-09-01T13:04:51.386Z,1021.46
2018-09-01T13:06:01.100Z,1021.5
2018-09-01T13:07:10.557Z,1021.5
2018-09-01T13:08:19.994Z,1021.45
2018-09-01T13:09:29.450Z,1021.46
2018-09-01T13:10:39.147Z,1021.51
2018-09-01T13:11:48.569Z,1021.44
2018-09-01T13:12:58.000Z,1021.43
2018-09-01T13:14:07.249Z,1021.5
2018-09-01T13:15:16.997Z,1021.42
2018-09-01T13:16:26.179Z,1021.4
2018-09-01T13:17:35.875Z,1021.43
2018-09-01T13:18:45.061Z,1021.43
2018-09-01T13:19:54.811Z,1021.42
2018-09-01T13:21:04.257Z,1021.4
2018-09-01T13:22:13.691Z,1021.35
2018-09-01T13:23:22.887Z,1021.33
2018-09-01T13:24:32.089Z,1021.37
2018-09-01T13:25:41.851Z,1021.37
2018-09-01T13:26:51.282Z,1021.39
2018-09-01T13:28:00.721Z,1021.38
2018-09-01T13:29:09.926Z,1021.41
2018-09-01T13:30:19.108Z,1021.42
2018-09-01T13:31:28.574Z,1021.39
2018-09-01T13:32:37.765Z,1021.34
2018-09-01T13:33:46.962Z,1021.37
2018-09-01T13:34:56.159Z,1021.4
2018-09-01T13:36:05.900Z,1021.41
2018-09-01T13:37:15.097Z,1021.33
2018-09-01T13:38:24.538Z,1021.35
2018-09-01T13:39:33.517Z,1021.34
2018-09-01T13:40:42.713Z,1021.38
2018-09-01T13:41:51.912Z,1021.34
2018-09-01T13:43:01.604Z,1021.32
2018-09-01T13:44:11.049Z,1021.34
2018-09-01T13:45:20.511Z,1021.31
2018-09-01T13:46:29.996Z,1021.33
2018-09-01T13:47:39.441Z,1021.29
2018-09-01T13:48:49.400Z,1021.34
2018-09-01T13:49:58.628Z,1021.29
2018-09-01T13:51:07.858Z,1021.25
2018-09-01T13:52:17.581Z,1021.34
2018-09-01T13:53:27.572Z,1021.37
2018-09-01T13:54:37.010Z,1021.32
2018-09-01T13:55:45.946Z,1021.32
2018-09-01T13:56:55.372Z,1021.35
2018-09-01T13:58:04.582Z,1021.34
2018-09-01T13:59:14.053Z,1021.37
2018-09-01T14:00:23.530Z,1021.33
2018-09-01T14:01:32.710Z,1021.33
2018-09-01T14:02:41.902Z,1021.34
2018-09-01T14:03:51.337Z,1021.28